createdAt,value
2017-06-03T00:01:57.739Z,27.50
2017-06-03T00:04:24.144Z,26.70
2017-06-03T00:06:51.390Z,28.50
2017-06-03T00:09:20.029Z,27.27
2017-06-03T00:11:48.181Z,27.70
2017-06-03T00:14:16.430Z,27.63
2017-06-03T00:16:43.677Z,28.10
2017-06-03T00:19:10.193Z,28.83
2017-06-03T00:21:37.430Z,31.13
2017-06-03T00:24:05.687Z,29.67
2017-06-03T00:26:32.219Z,28.90
2017-06-03T00:28:59.821Z,28.87
2017-06-03T00:31:28.050Z,29.17
2017-06-03T00:33:55.305Z,30.00
2017-06-03T00:36:21.882Z,29.60
2017-06-03T00:38:48.374Z,28.97
2017-06-03T00:41:16.650Z,28.07
2017-06-03T00:43:43.129Z,29.10
2017-06-03T00:46:10.038Z,30.33
2017-06-03T00:48:36.558Z,28.80
2017-06-03T00:51:03.803Z,29.47
2017-06-03T00:53:30.319Z,31.17
2017-06-03T00:55:56.807Z,30.43
2017-06-03T00:58:23.320Z,30.13
2017-06-03T01:00:51.318Z,28.50
2017-06-03T01:03:19.541Z,29.03
2017-06-03T01:05:46.806Z,28.30
2017-06-03T01:08:15.026Z,28.73
2017-06-03T01:10:43.248Z,28.30
2017-06-03T01:13:10.085Z,27.67
2017-06-03T01:15:38.348Z,27.37
2017-06-03T01:18:05.602Z,26.23
2017-06-03T01:20:32.107Z,24.90
2017-06-03T01:22:58.624Z,26.43
2017-06-03T01:25:26.593Z,28.33
2017-06-03T01:27:53.850Z,26.27
2017-06-03T01:30:20.306Z,26.37
2017-06-03T01:32:46.881Z,25.20
2017-06-03T01:35:15.118Z,26.83
2017-06-03T01:37:41.670Z,26.10
2017-06-03T01:40:09.906Z,25.93
2017-06-03T01:42:36.402Z,29.40
2017-06-03T01:45:02.983Z,27.80
2017-06-03T01:47:31.215Z,27.50
2017-06-03T01:49:57.778Z,28.30
2017-06-03T01:52:24.302Z,29.53
2017-06-03T01:54:51.529Z,29.27
2017-06-03T01:57:19.525Z,30.37
2017-06-03T01:59:47.170Z,29.60
2017-06-03T02:02:15.391Z,32.17
2017-06-03T02:04:43.619Z,31.73
2017-06-03T02:07:11.842Z,32.23
2017-06-03T02:09:38.345Z,33.70
2017-06-03T02:12:04.851Z,32.40
2017-06-03T02:14:31.850Z,33.57
2017-06-03T02:16:58.407Z,32.37
2017-06-03T02:19:26.626Z,32.97
2017-06-03T02:21:53.130Z,31.00
2017-06-03T02:24:20.742Z,35.33
2017-06-03T02:26:47.286Z,33.57
2017-06-03T02:29:15.510Z,33.87
2017-06-03T02:31:43.740Z,32.77
2017-06-03T02:34:11.930Z,33.77
2017-06-03T02:36:40.156Z,36.60
2017-06-03T02:39:08.509Z,34.63
2017-06-03T02:41:35.374Z,33.17
2017-06-03T02:44:01.891Z,32.67
2017-06-03T02:46:28.534Z,35.37
2017-06-03T02:48:55.102Z,31.37
2017-06-03T02:51:21.978Z,30.37
2017-06-03T02:53:48.448Z,30.10
2017-06-03T02:56:14.960Z,28.97
2017-06-03T02:58:43.185Z,28.20
2017-06-03T03:01:12.281Z,35.37
2017-06-03T03:03:40.573Z,28.07
2017-06-03T03:06:08.575Z,29.03
2017-06-03T03:08:36.796Z,27.50
2017-06-03T03:11:03.946Z,30.03
2017-06-03T03:13:30.442Z,30.47
2017-06-03T03:15:57.689Z,28.63
2017-06-03T03:18:25.329Z,25.37
2017-06-03T03:20:51.726Z,24.73
2017-06-03T03:23:18.227Z,25.20
2017-06-03T03:25:44.726Z,24.30
2017-06-03T03:28:11.978Z,22.30
2017-06-03T03:30:39.988Z,21.00
2017-06-03T03:33:06.522Z,18.90
2017-06-03T03:35:34.734Z,18.60
2017-06-03T03:38:01.267Z,15.80
2017-06-03T03:40:27.782Z,15.30
2017-06-03T03:42:56.017Z,15.30
2017-06-03T03:45:22.519Z,18.83
2017-06-03T03:47:49.774Z,21.77
2017-06-03T03:50:17.977Z,21.70
2017-06-03T03:52:44.514Z,25.13
2017-06-03T03:55:12.157Z,25.07
2017-06-03T03:57:38.657Z,23.70
2017-06-03T04:00:05.194Z,24.60
2017-06-03T04:02:31.661Z,23.57
2017-06-03T04:04:58.197Z,23.17
2017-06-03T04:07:26.413Z,24.77
2017-06-03T04:09:54.711Z,22.83
2017-06-03T04:12:22.336Z,21.77
2017-06-03T04:14:50.546Z,20.97
2017-06-03T04:17:17.046Z,21.13
2017-06-03T04:19:43.557Z,21.70
2017-06-03T04:22:10.114Z,17.87
2017-06-03T04:24:36.597Z,20.10
2017-06-03T04:27:03.863Z,18.97
2017-06-03T04:29:30.742Z,17.97
2017-06-03T04:31:57.280Z,17.80
2017-06-03T04:34:25.006Z,19.90
2017-06-03T04:36:51.535Z,18.83
2017-06-03T04:39:19.739Z,17.50
2017-06-03T04:41:47.949Z,17.40
2017-06-03T04:44:15.547Z,19.80
2017-06-03T04:46:43.763Z,19.47
2017-06-03T04:49:10.266Z,18.50
2017-06-03T04:51:36.772Z,20.13
2017-06-03T04:54:04.038Z,20.07
2017-06-03T04:56:31.188Z,19.53
2017-06-03T04:58:58.396Z,20.50
2017-06-03T05:01:25.270Z,19.13
2017-06-03T05:03:51.860Z,18.90
2017-06-03T05:06:18.386Z,19.87
2017-06-03T05:08:44.897Z,19.80
2017-06-03T05:11:11.683Z,20.47
2017-06-03T05:13:39.957Z,20.03
2017-06-03T05:16:06.485Z,20.37
2017-06-03T05:18:33.329Z,20.13
2017-06-03T05:21:01.589Z,19.80
2017-06-03T05:23:28.125Z,20.47
2017-06-03T05:25:54.986Z,20.17
2017-06-03T05:28:21.855Z,22.77
2017-06-03T05:30:49.119Z,22.70
2017-06-03T05:33:17.387Z,21.10
2017-06-03T05:35:44.005Z,22.93
2017-06-03T05:38:12.033Z,23.00
2017-06-03T05:40:38.567Z,22.50
2017-06-03T05:43:05.830Z,23.13
2017-06-03T05:45:34.065Z,27.03
2017-06-03T05:48:00.653Z,29.47
2017-06-03T05:50:27.550Z,28.63
2017-06-03T05:52:55.885Z,30.47
2017-06-03T05:55:23.179Z,30.80
2017-06-03T05:57:49.690Z,31.87
2017-06-03T06:00:16.964Z,33.50
2017-06-03T06:02:43.458Z,31.90
2017-06-03T06:05:11.742Z,30.23
2017-06-03T06:07:38.224Z,33.93
2017-06-03T06:10:05.118Z,34.30
2017-06-03T06:12:32.756Z,33.50
2017-06-03T06:14:59.922Z,31.40
2017-06-03T06:17:28.183Z,33.33
2017-06-03T06:19:54.688Z,32.17
2017-06-03T06:22:23.014Z,35.60
2017-06-03T06:24:52.135Z,34.83
2017-06-03T06:27:18.839Z,35.30
2017-06-03T06:29:46.114Z,36.63
2017-06-03T06:32:13.372Z,34.83
2017-06-03T06:34:39.880Z,34.60
2017-06-03T06:37:07.026Z,35.23
2017-06-03T06:39:34.274Z,35.90
2017-06-03T06:42:01.539Z,35.60
2017-06-03T06:44:28.067Z,34.30
2017-06-03T06:46:56.293Z,32.93
2017-06-03T06:49:24.520Z,31.73
2017-06-03T06:51:51.039Z,29.90
2017-06-03T06:54:18.305Z,31.93
2017-06-03T06:56:46.427Z,27.80
2017-06-03T06:59:13.325Z,32.40
2017-06-03T07:01:39.886Z,32.60
2017-06-03T07:04:06.401Z,31.60
2017-06-03T07:06:33.346Z,32.50
2017-06-03T07:08:59.771Z,30.33
2017-06-03T07:11:27.415Z,30.03
2017-06-03T07:13:53.930Z,28.80
2017-06-03T07:16:22.177Z,33.40
2017-06-03T07:18:48.762Z,33.50
2017-06-03T07:21:16.978Z,35.50
2017-06-03T07:23:45.233Z,33.53
2017-06-03T07:26:11.799Z,33.43
2017-06-03T07:28:40.062Z,28.10
2017-06-03T07:31:06.488Z,29.10
2017-06-03T07:33:33.390Z,28.63
2017-06-03T07:35:59.899Z,29.30
2017-06-03T07:38:28.154Z,30.60
2017-06-03T07:40:56.389Z,27.90
2017-06-03T07:43:23.661Z,26.50
2017-06-03T07:45:50.175Z,27.87
2017-06-03T07:48:16.709Z,22.53
2017-06-03T07:50:44.380Z,22.17
2017-06-03T07:53:12.592Z,21.33
2017-06-03T07:55:39.098Z,18.60
2017-06-03T07:58:11.138Z,21.50
2017-06-03T08:00:39.134Z,21.10
2017-06-03T08:03:05.621Z,21.30
2017-06-03T08:05:32.127Z,19.77
2017-06-03T08:07:58.672Z,18.90
2017-06-03T08:10:25.199Z,16.63
2017-06-03T08:12:52.371Z,16.50
2017-06-03T08:15:18.931Z,16.77
2017-06-03T08:17:45.456Z,18.43
2017-06-03T08:20:13.114Z,18.33
2017-06-03T08:22:39.601Z,19.37
2017-06-03T08:25:07.862Z,16.80
2017-06-03T08:27:36.069Z,16.10
2017-06-03T08:30:04.175Z,14.87
2017-06-03T08:32:33.456Z,14.97
2017-06-03T08:34:59.887Z,15.50
2017-06-03T08:37:27.926Z,15.10
2017-06-03T08:39:54.437Z,13.60
2017-06-03T08:42:21.032Z,12.47
2017-06-03T08:44:47.567Z,12.10
2017-06-03T08:47:14.107Z,12.23
2017-06-03T08:49:40.645Z,13.27
2017-06-03T08:52:07.122Z,15.03
2017-06-03T08:54:35.349Z,15.67
2017-06-03T08:57:03.553Z,16.63
2017-06-03T08:59:30.079Z,17.87
2017-06-03T09:01:56.590Z,16.47
2017-06-03T09:04:25.019Z,16.43
2017-06-03T09:06:52.269Z,18.20
2017-06-03T09:09:18.785Z,18.37
2017-06-03T09:11:45.282Z,17.67
2017-06-03T09:14:11.793Z,17.83
2017-06-03T09:16:38.301Z,18.17
2017-06-03T09:19:04.813Z,13.30
2017-06-03T09:21:31.682Z,12.87
2017-06-03T09:23:58.192Z,11.30
2017-06-03T09:26:25.162Z,12.23
2017-06-03T09:28:53.386Z,12.50
2017-06-03T09:31:21.722Z,12.70
2017-06-03T09:33:48.242Z,16.10
2017-06-03T09:36:16.345Z,14.50
2017-06-03T09:38:44.581Z,13.50
2017-06-03T09:41:11.460Z,13.27
2017-06-03T09:43:37.955Z,13.60
2017-06-03T09:46:04.869Z,13.00
2017-06-03T09:48:32.170Z,11.77
2017-06-03T09:51:00.450Z,12.00
2017-06-03T09:53:28.430Z,12.23
2017-06-03T09:55:56.407Z,13.50
2017-06-03T09:58:23.679Z,13.13
2017-06-03T10:00:51.819Z,14.37
2017-06-03T10:03:20.085Z,14.13
2017-06-03T10:05:48.226Z,15.20
2017-06-03T10:08:16.453Z,15.10
2017-06-03T10:10:42.998Z,16.63
2017-06-03T10:13:09.513Z,14.10
2017-06-03T10:15:36.045Z,16.60
2017-06-03T10:18:02.519Z,12.30
2017-06-03T10:20:29.078Z,14.90
2017-06-03T10:22:55.971Z,13.67
2017-06-03T10:25:22.871Z,15.00
2017-06-03T10:27:49.475Z,13.63
2017-06-03T10:30:17.714Z,11.77
2017-06-03T10:32:45.949Z,12.40
2017-06-03T10:35:14.177Z,13.10
2017-06-03T10:37:42.426Z,12.20
2017-06-03T10:40:08.980Z,10.50
2017-06-03T10:42:35.903Z,12.20
2017-06-03T10:45:02.506Z,10.97
2017-06-03T10:47:28.999Z,10.93
2017-06-03T10:49:55.535Z,12.50
2017-06-03T10:52:23.861Z,9.70
2017-06-03T10:54:50.486Z,10.07
2017-06-03T10:57:18.742Z,9.00
2017-06-03T10:59:46.070Z,9.10
2017-06-03T11:02:14.089Z,9.83
2017-06-03T11:04:42.084Z,10.30
2017-06-03T11:07:08.370Z,9.77
2017-06-03T11:09:36.401Z,10.77
2017-06-03T11:12:04.401Z,9.60
2017-06-03T11:14:30.701Z,8.07
2017-06-03T11:16:58.466Z,7.70
2017-06-03T11:19:25.102Z,8.33
2017-06-03T11:21:51.374Z,9.67
2017-06-03T11:24:19.067Z,6.57
2017-06-03T11:26:45.377Z,8.27
2017-06-03T11:29:12.002Z,7.77
2017-06-03T11:31:39.049Z,6.77
2017-06-03T11:34:05.322Z,7.73
2017-06-03T11:36:33.347Z,8.43
2017-06-03T11:38:59.626Z,11.53
2017-06-03T11:41:27.386Z,10.80
2017-06-03T11:43:55.413Z,9.93
2017-06-03T11:46:23.550Z,9.00
2017-06-03T11:48:49.940Z,11.67
2017-06-03T11:51:16.341Z,10.07
2017-06-03T11:53:42.607Z,9.40
2017-06-03T11:56:09.426Z,8.13
2017-06-03T11:58:36.850Z,8.37
2017-06-03T12:01:03.528Z,7.80
2017-06-03T12:03:30.570Z,7.20
2017-06-03T12:05:56.838Z,7.43
2017-06-03T12:08:23.510Z,6.40
2017-06-03T12:10:51.675Z,7.60
2017-06-03T12:13:18.502Z,7.60
2017-06-03T12:15:46.048Z,7.50
2017-06-03T12:18:14.109Z,6.53
2017-06-03T12:20:41.686Z,7.40
2017-06-03T12:23:09.190Z,7.70
2017-06-03T12:25:37.206Z,8.87
2017-06-03T12:28:03.482Z,7.73
2017-06-03T12:30:31.486Z,7.67
2017-06-03T12:32:57.752Z,7.00
2017-06-03T12:35:25.859Z,8.60
2017-06-03T12:37:53.854Z,7.77
2017-06-03T12:40:21.837Z,6.27
2017-06-03T12:42:49.849Z,7.30
2017-06-03T12:45:17.615Z,6.30
2017-06-03T12:47:45.621Z,6.23
2017-06-03T12:50:12.267Z,5.80
2017-06-03T12:52:38.557Z,6.37
2017-06-03T12:55:04.838Z,5.80
2017-06-03T12:57:32.825Z,5.30
2017-06-03T12:59:59.110Z,4.40
2017-06-03T13:02:25.770Z,4.53
2017-06-03T13:04:52.042Z,5.00
2017-06-03T13:07:19.827Z,5.17
2017-06-03T13:09:46.878Z,4.60
2017-06-03T13:12:14.918Z,3.57
2017-06-03T13:14:43.005Z,5.07
2017-06-03T13:17:09.281Z,5.80
2017-06-03T13:19:37.338Z,5.67
2017-06-03T13:22:05.338Z,5.43
2017-06-03T13:24:31.634Z,5.03
2017-06-03T13:26:58.047Z,5.80
2017-06-03T13:29:25.071Z,5.60
2017-06-03T13:31:51.349Z,5.50
2017-06-03T13:34:17.627Z,4.60
2017-06-03T13:36:45.378Z,4.87
2017-06-03T13:39:11.667Z,4.80
2017-06-03T13:41:37.954Z,4.90
2017-06-03T13:44:04.245Z,5.13
2017-06-03T13:46:32.346Z,5.30
2017-06-03T13:49:00.381Z,5.07
2017-06-03T13:51:28.380Z,5.90
2017-06-03T13:53:56.389Z,6.20
2017-06-03T13:56:24.258Z,6.23
2017-06-03T13:58:51.333Z,6.83
2017-06-03T14:01:19.343Z,7.30
2017-06-03T14:03:45.643Z,7.17
2017-06-03T14:06:12.319Z,6.17
2017-06-03T14:08:38.612Z,6.67
2017-06-03T14:11:04.922Z,6.97
2017-06-03T14:13:31.589Z,7.20
2017-06-03T14:15:57.874Z,5.90
2017-06-03T14:18:25.894Z,3.40
2017-06-03T14:20:53.882Z,3.37
2017-06-03T14:23:20.546Z,3.40
2017-06-03T14:25:47.575Z,5.30
2017-06-03T14:28:15.579Z,5.77
2017-06-03T14:30:42.261Z,7.30
2017-06-03T14:33:09.506Z,7.93
2017-06-03T14:35:37.537Z,10.67
2017-06-03T14:38:04.204Z,13.40
2017-06-03T14:40:32.209Z,14.33
2017-06-03T14:42:59.265Z,15.30
2017-06-03T14:45:26.663Z,15.20
2017-06-03T14:47:53.705Z,16.40
2017-06-03T14:50:20.734Z,15.27
2017-06-03T14:52:47.034Z,16.27
2017-06-03T14:55:13.398Z,16.53
2017-06-03T14:57:41.423Z,22.07
2017-06-03T15:00:09.427Z,28.87
2017-06-03T15:02:36.145Z,23.70
2017-06-03T15:05:02.423Z,25.20
2017-06-03T15:07:28.744Z,29.00
2017-06-03T15:09:56.754Z,33.40
2017-06-03T15:12:23.054Z,29.93
2017-06-03T15:14:49.387Z,25.60
2017-06-03T15:17:15.703Z,21.97
2017-06-03T15:19:42.018Z,23.60
2017-06-03T15:22:08.306Z,20.93
2017-06-03T15:24:34.628Z,22.13
2017-06-03T15:27:00.934Z,22.67
2017-06-03T15:29:27.978Z,23.03
2017-06-03T15:31:54.272Z,20.77
2017-06-03T15:34:20.941Z,17.87
2017-06-03T15:36:48.957Z,23.97
2017-06-03T15:39:16.360Z,22.90
2017-06-03T15:41:43.414Z,18.83
2017-06-03T15:44:11.497Z,20.63
2017-06-03T15:46:39.268Z,16.73
2017-06-03T15:49:06.727Z,17.20
2017-06-03T15:51:33.043Z,19.43
2017-06-03T15:54:00.082Z,18.27
2017-06-03T15:56:27.126Z,15.00
2017-06-03T15:58:54.260Z,13.50
2017-06-03T16:01:21.314Z,15.53
2017-06-03T16:03:47.726Z,17.20
2017-06-03T16:06:14.026Z,15.93
2017-06-03T16:08:42.013Z,16.60
2017-06-03T16:11:08.426Z,18.13
2017-06-03T16:13:35.450Z,20.23
2017-06-03T16:16:02.499Z,17.53
2017-06-03T16:18:30.507Z,16.50
2017-06-03T16:20:58.521Z,14.57
2017-06-03T16:23:25.183Z,17.40
2017-06-03T16:25:53.179Z,17.40
2017-06-03T16:28:21.189Z,15.77
2017-06-03T16:30:49.229Z,17.17
2017-06-03T16:33:16.265Z,16.60
2017-06-03T16:35:43.988Z,15.60
2017-06-03T16:38:12.002Z,15.90
2017-06-03T16:40:39.989Z,16.00
2017-06-03T16:43:06.301Z,13.73
2017-06-03T16:45:32.978Z,13.23
2017-06-03T16:48:01.027Z,12.30
2017-06-03T16:50:29.063Z,11.87
2017-06-03T16:52:55.710Z,10.53
2017-06-03T16:55:23.731Z,10.03
2017-06-03T16:57:50.883Z,11.80
2017-06-03T17:00:18.889Z,12.03
2017-06-03T17:02:45.974Z,11.73
2017-06-03T17:05:12.326Z,11.53
2017-06-03T17:07:40.477Z,11.10
2017-06-03T17:10:08.533Z,12.63
2017-06-03T17:12:35.920Z,12.87
2017-06-03T17:15:02.231Z,13.23
2017-06-03T17:17:30.347Z,12.10
2017-06-03T17:19:56.994Z,12.10
2017-06-03T17:22:23.698Z,11.10
2017-06-03T17:24:50.778Z,12.10
2017-06-03T17:27:18.702Z,12.40
2017-06-03T17:29:45.383Z,12.50
2017-06-03T17:32:13.335Z,12.70
2017-06-03T17:34:41.355Z,12.50
2017-06-03T17:37:09.206Z,13.47
2017-06-03T17:39:37.214Z,15.90
2017-06-03T17:42:05.265Z,14.23
2017-06-03T17:44:33.278Z,14.07
2017-06-03T17:47:01.143Z,14.30
2017-06-03T17:49:29.273Z,14.43
2017-06-03T17:51:56.774Z,16.90
2017-06-03T17:54:23.175Z,16.07
2017-06-03T17:56:49.493Z,15.43
2017-06-03T17:59:17.607Z,14.40
2017-06-03T18:01:44.748Z,15.13
2017-06-03T18:04:11.026Z,14.73
2017-06-03T18:06:39.135Z,15.47
2017-06-03T18:09:06.195Z,17.57
2017-06-03T18:11:32.518Z,18.03
2017-06-03T18:14:00.646Z,22.93
2017-06-03T18:16:28.726Z,22.67
2017-06-03T18:18:56.818Z,24.13
2017-06-03T18:21:24.693Z,24.83
2017-06-03T18:23:52.722Z,24.03
2017-06-03T18:26:19.043Z,23.70
2017-06-03T18:28:45.684Z,24.90
2017-06-03T18:31:12.760Z,24.80
2017-06-03T18:33:40.269Z,23.90
2017-06-03T18:36:06.688Z,23.83
2017-06-03T18:38:34.202Z,25.13
2017-06-03T18:41:00.534Z,25.33
2017-06-03T18:43:28.574Z,26.17
2017-06-03T18:45:56.615Z,29.03
2017-06-03T18:48:24.801Z,29.50
2017-06-03T18:50:54.111Z,30.07
2017-06-03T18:53:22.292Z,29.13
2017-06-03T18:55:50.515Z,30.50
2017-06-03T18:58:18.770Z,28.93
2017-06-03T19:00:46.886Z,28.20
2017-06-03T19:03:13.418Z,32.37
2017-06-03T19:05:41.657Z,28.90
2017-06-03T19:08:08.645Z,30.77
2017-06-03T19:10:36.820Z,30.07
2017-06-03T19:13:05.021Z,30.87
2017-06-03T19:15:33.243Z,33.07
2017-06-03T19:18:00.003Z,32.60
2017-06-03T19:20:26.477Z,36.10
2017-06-03T19:22:54.523Z,33.07
2017-06-03T19:25:22.762Z,31.43
2017-06-03T19:27:51.820Z,32.60
2017-06-03T19:30:20.218Z,32.00
2017-06-03T19:32:47.570Z,29.87
2017-06-03T19:35:14.114Z,30.70
2017-06-03T19:37:40.703Z,32.50
2017-06-03T19:40:09.001Z,28.67
2017-06-03T19:42:37.339Z,30.63
2017-06-03T19:45:05.630Z,31.23
2017-06-03T19:47:33.299Z,29.63
2017-06-03T19:50:01.551Z,30.40
2017-06-03T19:52:29.797Z,29.73
2017-06-03T19:54:58.078Z,28.87
2017-06-03T19:57:26.350Z,27.53
2017-06-03T19:59:54.629Z,28.97
2017-06-03T20:02:22.925Z,27.90
2017-06-03T20:04:50.311Z,27.63
2017-06-03T20:07:18.666Z,28.90
2017-06-03T20:09:46.897Z,28.93
2017-06-03T20:12:15.524Z,29.40
2017-06-03T20:14:43.167Z,27.10
2017-06-03T20:17:11.170Z,28.73
2017-06-03T20:19:39.393Z,28.27
2017-06-03T20:22:05.903Z,25.50
2017-06-03T20:24:34.150Z,24.70
2017-06-03T20:27:00.712Z,23.97
2017-06-03T20:29:29.001Z,23.37
2017-06-03T20:31:57.302Z,21.63
2017-06-03T20:34:24.964Z,21.00
2017-06-03T20:36:53.204Z,20.40
2017-06-03T20:39:21.569Z,18.40
2017-06-03T20:41:49.987Z,19.13
2017-06-03T20:44:18.542Z,18.40
2017-06-03T20:46:46.943Z,18.60
2017-06-03T20:49:13.777Z,18.43
2017-06-03T20:51:41.613Z,17.20
2017-06-03T20:54:08.304Z,17.37
2017-06-03T20:56:37.629Z,18.03
2017-06-03T20:59:04.363Z,17.67
2017-06-03T21:01:32.635Z,16.97
2017-06-03T21:04:01.062Z,18.80
2017-06-03T21:06:29.390Z,17.40
2017-06-03T21:08:57.694Z,16.60
2017-06-03T21:11:25.992Z,18.90
2017-06-03T21:13:54.299Z,18.13
2017-06-03T21:16:22.417Z,18.30
2017-06-03T21:18:50.111Z,17.57
2017-06-03T21:21:18.378Z,17.97
2017-06-03T21:23:46.417Z,17.80
2017-06-03T21:26:14.079Z,17.90
2017-06-03T21:28:42.187Z,16.37
2017-06-03T21:31:08.575Z,16.67
2017-06-03T21:33:36.569Z,18.00
2017-06-03T21:36:04.587Z,18.30
2017-06-03T21:38:32.892Z,18.00
2017-06-03T21:41:00.991Z,18.73
2017-06-03T21:43:27.355Z,19.30
2017-06-03T21:45:55.366Z,17.03
2017-06-03T21:48:23.384Z,18.10
2017-06-03T21:50:52.144Z,17.63
2017-06-03T21:53:20.191Z,18.30
2017-06-03T21:55:46.475Z,19.60
2017-06-03T21:58:14.498Z,21.07
2017-06-03T22:00:42.537Z,22.53
2017-06-03T22:03:11.880Z,25.70
2017-06-03T22:05:39.984Z,23.07
2017-06-03T22:08:09.000Z,24.93
2017-06-03T22:10:36.774Z,27.30
2017-06-03T22:13:03.463Z,25.97
2017-06-03T22:15:30.487Z,24.33
2017-06-03T22:17:57.941Z,27.30
2017-06-03T22:20:25.985Z,26.13
2017-06-03T22:22:52.640Z,28.53
2017-06-03T22:25:19.302Z,27.33
2017-06-03T22:27:45.602Z,27.67
2017-06-03T22:30:12.253Z,27.20
2017-06-03T22:32:38.537Z,28.20
2017-06-03T22:35:06.328Z,30.20
2017-06-03T22:37:34.391Z,28.90
2017-06-03T22:40:02.394Z,29.37
2017-06-03T22:42:29.434Z,33.03
2017-06-03T22:44:56.546Z,33.70
2017-06-03T22:47:24.581Z,40.83
2017-06-03T22:49:51.622Z,35.47
2017-06-03T22:52:19.609Z,31.47
2017-06-03T22:54:47.390Z,34.33
2017-06-03T22:57:15.575Z,36.70
2017-06-03T22:59:41.927Z,32.43
2017-06-03T23:02:08.207Z,31.10
2017-06-03T23:04:34.897Z,30.27
2017-06-03T23:07:01.273Z,26.57
2017-06-03T23:09:29.329Z,23.97
2017-06-03T23:11:57.406Z,26.07
2017-06-03T23:14:24.458Z,26.10
2017-06-03T23:16:50.803Z,24.80
2017-06-03T23:19:17.146Z,26.03
2017-06-03T23:21:43.455Z,28.77
2017-06-03T23:24:09.787Z,27.90
2017-06-03T23:26:36.088Z,26.50
2017-06-03T23:29:03.222Z,25.40
2017-06-03T23:31:29.585Z,25.17
2017-06-03T23:33:55.918Z,27.30
2017-06-03T23:36:22.194Z,25.90
2017-06-03T23:38:48.547Z,27.53
2017-06-03T23:41:14.842Z,29.73
2017-06-03T23:43:42.845Z,27.73
2017-06-03T23:46:13.112Z,30.90
2017-06-03T23:48:39.398Z,29.90
2017-06-03T23:51:05.667Z,32.40
2017-06-03T23:53:31.987Z,35.63
2017-06-03T23:55:58.288Z,39.37
2017-06-03T23:58:24.947Z,43.10
